Pagrindinis puslapis
METAR-TAF:

METAR-TAF

Oro uostai :

Rosarijas, Argentina

platuma: 32-55S, ilguma: 060-47W, Aukštis: 25 m

Dabartinis oras

Ataskaita buvo paskelbta 49 minutes, ne 12:00 UTC
Vėjas 10 kt iš Šiaurės/Šiaurės Rytų
Temperatūra 15°C
Drėgmė 55%
Slėgis 1021 hPa
Matomumas 10 km arba daugiau
nėra debesų žemiau 1500 m ir nėra kamuolinių lietaus debesų

METAR: SAAR 171200Z 03010KT CAVOK 15/06 Q1021

Laikas: 09:49 (12:49 UTC)

Prognozė

Ataskaita buvo paskelbta 1 valandą ir 49 minutes, ne 11:00 UTC
Prognozė galioja nuo 17 metu 12 UTC su 18 metu 12 UTC
Vėjas 10 kt iš Šiaurės Rytų
Matomumas 10 km arba daugiau
nėra debesų žemiau 1500 m ir nėra kamuolinių lietaus debesų
Tapsmas
nuo 17 metu 19 UTC su 17 metu 21 UTC
Vėjas 10 kt iš Rytų
Tapsmas
nuo 18 metu 01 UTC su 18 metu 03 UTC
Vėjas 3 kt nuo kintamojo kryptimis

TAF: SAAR 171100Z 1712/1812 05010KT CAVOK TX25/1718Z TN11/1810Z BECMG 1719/1721 09010KT BECMG 1801/1803 VRB03KT

Orai ataskaitas ir orų prognozės (METAR, TAF).

turimą stotys yra geltonos ir raudonos taškus žemėlapyje.

Perkelti pele per norėdami pamatyti stoties vardą.

Tada spustelėkite, norėdami matyti oro stebėjimo ir prognozės.

Norėdami pakeisti žemėlapį: spustelėkite ant žalios mygtukų su juodo kryžiaus žemyn,; žalią mygtuką su brūkšneliu, jei norite nutolinti; arba žalių rodyklių gretimoms žemėlapius.


METAR-TAF: